Time;durP1;ratioP1;P1;durP2;ratioP2;P2;SDS_P1;SDS_P2;PMS_P1;PMS_P2;Temp;Humidity;BMP_temperature;BMP_pressure;BME280_temperature;BME280_humidity;BME280_pressure;Samples;Min_cycle;Max_cycle;Signal;HPM_P1;HPM_P2
2021/12/04 00:02:25;;;;;;;28.10;14.60;;;;;;;-3.57;100.00;99064.02;1661988;85;21082;-71
2021/12/04 00:04:54;;;;;;;28.47;15.40;;;;;;;-3.59;100.00;99071.48;1651142;85;21795;-70
2021/12/04 00:07:22;;;;;;;32.58;16.67;;;;;;;-3.60;100.00;99069.86;1651684;85;21053;-70
2021/12/04 00:09:50;;;;;;;28.52;15.70;;;;;;;-3.62;100.00;99077.84;1648015;85;20967;-70
2021/12/04 00:12:20;;;;;;;31.45;15.85;;;;;;;-3.66;100.00;99075.63;1675016;84;20992;-70
2021/12/04 00:14:48;;;;;;;25.40;14.15;;;;;;;-3.67;100.00;99080.70;1679623;83;20940;-70
2021/12/04 00:17:15;;;;;;;25.27;13.43;;;;;;;-3.68;100.00;99085.78;1650728;85;21595;-70
2021/12/04 00:19:41;;;;;;;27.55;13.95;;;;;;;-3.69;100.00;99088.17;1650092;85;21025;-72
2021/12/04 00:22:08;;;;;;;29.55;14.10;;;;;;;-3.69;100.00;99091.38;1631641;86;21051;-72
2021/12/04 00:24:34;;;;;;;29.07;14.45;;;;;;;-3.70;100.00;99084.39;1638593;86;21124;-71
2021/12/04 00:27:01;;;;;;;28.35;14.90;;;;;;;-3.71;100.00;99080.07;1635701;86;21010;-71
2021/12/04 00:29:28;;;;;;;34.92;15.93;;;;;;;-3.71;100.00;99078.20;1633304;86;21572;-70
2021/12/04 00:31:59;;;;;;;29.00;14.60;;;;;;;-3.71;100.00;99074.70;1678226;85;21549;-71
2021/12/04 00:34:25;;;;;;;26.07;13.62;;;;;;;-3.72;100.00;99073.89;1652260;85;20958;-71
2021/12/04 00:50:23;;;;;;;31.80;15.68;;;;;;;-3.87;100.00;99085.61;1667659;84;20931;-69
2021/12/04 00:52:49;;;;;;;34.55;16.40;;;;;;;-3.90;100.00;99086.60;1660168;84;21736;-70
2021/12/04 00:55:16;;;;;;;33.58;15.90;;;;;;;-3.92;100.00;99088.17;1645508;85;21548;-70
2021/12/04 00:57:43;;;;;;;36.40;17.17;;;;;;;-3.95;100.00;99087.30;1644038;85;21105;-70
2021/12/04 01:00:11;;;;;;;42.35;19.05;;;;;;;-3.96;100.00;99088.34;1624823;86;20981;-71
2021/12/04 01:02:37;;;;;;;32.67;15.10;;;;;;;-3.97;100.00;99082.69;1627727;86;20986;-71
2021/12/04 01:05:05;;;;;;;32.58;14.98;;;;;;;-4.00;100.00;99081.30;1678955;85;21563;-71
2021/12/04 01:07:33;;;;;;;30.20;13.72;;;;;;;-4.01;100.00;99076.98;1677784;84;21539;-71
2021/12/04 01:10:00;;;;;;;23.40;11.53;;;;;;;-4.01;100.00;99081.00;1647321;85;21596;-71
2021/12/04 01:12:27;;;;;;;18.55;10.08;;;;;;;-4.00;100.00;99087.18;1673087;85;21503;-71
2021/12/04 01:14:53;;;;;;;24.37;11.78;;;;;;;-4.02;100.00;99084.73;1679060;84;21444;-72
2021/12/04 01:17:19;;;;;;;22.07;10.65;;;;;;;-4.03;100.00;99080.42;1678246;84;21460;-72
2021/12/04 01:19:46;;;;;;;20.55;10.18;;;;;;;-4.04;100.00;99080.65;1652044;85;21438;-72
2021/12/04 01:22:12;;;;;;;25.43;11.85;;;;;;;-4.04;100.00;99086.02;1641568;86;20927;-72
2021/12/04 01:24:38;;;;;;;27.80;12.05;;;;;;;-4.05;100.00;99089.25;1628160;86;20925;-72
2021/12/04 01:27:07;;;;;;;24.80;11.50;;;;;;;-4.04;100.00;99085.48;1629367;86;21052;-72
2021/12/04 01:29:33;;;;;;;26.05;12.43;;;;;;;-4.00;100.00;99091.20;1640430;86;21004;-72
2021/12/04 01:32:00;;;;;;;24.12;12.05;;;;;;;-4.01;100.00;99085.02;1655225;86;21505;-72
2021/12/04 01:34:26;;;;;;;27.00;13.05;;;;;;;-4.02;100.00;99078.55;1674730;85;20948;-72
2021/12/04 01:36:53;;;;;;;26.95;14.20;;;;;;;-4.01;100.00;99085.02;1677927;84;20952;-72
2021/12/04 01:39:19;;;;;;;23.83;11.63;;;;;;;-4.01;100.00;99084.20;1650639;85;21473;-72
2021/12/04 01:41:46;;;;;;;25.88;12.07;;;;;;;-4.01;100.00;99094.94;1646671;85;21487;-71
2021/12/04 01:44:14;;;;;;;24.25;12.07;;;;;;;-4.03;100.00;99097.84;1646454;86;21760;-71
2021/12/04 01:46:42;;;;;;;25.92;13.00;;;;;;;-4.05;100.00;99099.97;1658334;86;20906;-71
2021/12/04 01:49:08;;;;;;;24.12;12.95;;;;;;;-4.05;100.00;99106.67;1656509;85;21033;-71
2021/12/04 01:51:34;;;;;;;27.52;12.82;;;;;;;-4.06;100.00;99106.91;1652942;85;21006;-71
2021/12/04 01:54:01;;;;;;;25.57;12.75;;;;;;;-4.05;100.00;99111.22;1661215;85;20965;-71
2021/12/04 01:56:30;;;;;;;29.18;12.53;;;;;;;-4.06;100.00;99114.42;1680572;84;21483;-71
2021/12/04 01:58:57;;;;;;;24.63;12.20;;;;;;;-4.07;100.00;99115.47;1655457;85;21088;-71
2021/12/04 02:01:23;;;;;;;27.85;13.28;;;;;;;-4.07;100.00;99120.84;1639375;86;21037;-70
2021/12/04 02:03:50;;;;;;;21.62;10.93;;;;;;;-4.08;100.00;99111.69;1641620;86;21008;-70
2021/12/04 02:06:16;;;;;;;23.18;11.93;;;;;;;-4.10;100.00;99111.91;1642685;86;20889;-70
2021/12/04 02:08:44;;;;;;;24.45;11.45;;;;;;;-4.10;100.00;99115.12;1639566;85;21005;-70
2021/12/04 02:11:11;;;;;;;23.10;12.37;;;;;;;-4.11;100.00;99116.17;1645792;87;20948;-70
2021/12/04 02:13:37;;;;;;;25.60;13.85;;;;;;;-4.10;100.00;99119.14;1653242;85;20914;-70
2021/12/04 02:16:16;;;;;;;26.12;13.00;;;;;;;-4.12;100.00;99117.21;1657156;84;21098;-69
2021/12/04 02:18:43;;;;;;;24.82;13.25;;;;;;;-4.14;100.00;99114.77;1669276;84;21016;-68
2021/12/04 02:21:10;;;;;;;25.45;13.25;;;;;;;-4.15;100.00;99121.17;1645799;86;21145;-68
2021/12/04 02:23:37;;;;;;;28.32;12.30;;;;;;;-4.16;100.00;99119.54;1644608;86;20986;-68
2021/12/04 02:26:03;;;;;;;24.45;11.95;;;;;;;-4.18;100.00;99126.17;1669018;85;21036;-69
2021/12/04 02:28:30;;;;;;;23.70;12.03;;;;;;;-4.21;100.00;99124.77;1677096;85;21008;-69
2021/12/04 02:30:56;;;;;;;20.20;10.23;;;;;;;-4.20;100.00;99124.25;1659925;85;21434;-69
2021/12/04 02:33:22;;;;;;;21.40;10.82;;;;;;;-4.22;100.00;99121.80;1682744;85;21598;-69
2021/12/04 02:35:52;;;;;;;22.48;11.55;;;;;;;-4.25;100.00;99122.26;1652327;85;20964;-68
2021/12/04 02:38:22;;;;;;;23.05;11.70;;;;;;;-4.27;100.00;99120.33;1677238;85;21099;-69
2021/12/04 02:40:48;;;;;;;21.50;10.40;;;;;;;-4.28;100.00;99121.38;1664220;85;21024;-69
2021/12/04 02:43:15;;;;;;;23.05;11.93;;;;;;;-4.30;100.00;99119.97;1636918;85;21643;-68
2021/12/04 02:45:43;;;;;;;22.70;11.00;;;;;;;-4.36;100.00;99123.86;1645129;86;21461;-69
2021/12/04 02:48:11;;;;;;;25.10;11.95;;;;;;;-4.37;100.00;99121.41;1628630;86;20988;-69
2021/12/04 02:50:38;;;;;;;32.08;15.00;;;;;;;-4.37;100.00;99120.07;1654368;85;21002;-69
2021/12/04 02:53:06;;;;;;;36.42;18.17;;;;;;;-4.41;100.00;99122.91;1679280;85;20889;-69
2021/12/04 02:55:35;;;;;;;28.55;13.35;;;;;;;-4.44;100.00;99117.48;1681591;84;21517;-69
2021/12/04 02:58:03;;;;;;;29.80;14.95;;;;;;;-4.46;100.00;99113.41;1676028;83;21842;-69
2021/12/04 03:00:29;;;;;;;26.00;13.50;;;;;;;-4.46;100.00;99116.08;1652577;85;21028;-69
2021/12/04 03:02:56;;;;;;;35.00;16.20;;;;;;;-4.47;100.00;99115.27;1656799;85;20998;-70
2021/12/04 03:05:26;;;;;;;34.90;15.63;;;;;;;-4.48;100.00;99120.33;1650849;85;20891;-69
2021/12/04 03:07:54;;;;;;;32.93;15.08;;;;;;;-4.49;100.00;99115.20;1659997;85;20910;-69
2021/12/04 03:10:21;;;;;;;26.57;13.25;;;;;;;-4.50;100.00;99122.95;1649118;86;21136;-69
2021/12/04 03:12:50;;;;;;;36.10;17.07;;;;;;;-4.52;100.00;99120.49;1679728;85;20928;-71
2021/12/04 03:15:17;;;;;;;32.10;17.07;;;;;;;-4.54;100.00;99120.42;1676185;84;21095;-70
2021/12/04 03:17:43;;;;;;;31.82;14.60;;;;;;;-4.56;100.00;99118.50;1680429;84;21488;-69
2021/12/04 03:20:11;;;;;;;29.90;13.35;;;;;;;-4.58;100.00;99117.91;1653480;85;20975;-70
2021/12/04 03:22:40;;;;;;;29.05;13.28;;;;;;;-4.60;100.00;99111.96;1646184;85;21121;-70
2021/12/04 03:25:07;;;;;;;27.80;14.23;;;;;;;-4.62;100.00;99116.76;1681347;84;20972;-70
2021/12/04 03:27:34;;;;;;;27.85;13.03;;;;;;;-4.64;100.00;99125.55;1650314;85;20963;-70
2021/12/04 03:30:05;;;;;;;29.45;13.78;;;;;;;-4.66;100.00;99127.11;1654356;86;20931;-70
2021/12/04 03:35:23;;;;;;;31.82;16.97;;;;;;;-4.71;100.00;99130.99;1679938;83;21137;-70
2021/12/04 03:43:07;;;;;;;39.55;18.95;;;;;;;-4.76;100.00;99137.03;1654436;85;21022;-70
2021/12/04 03:45:36;;;;;;;46.75;21.12;;;;;;;-4.76;100.00;99138.89;1650255;85;21026;-70
2021/12/04 03:48:12;;;;;;;50.85;23.62;;;;;;;-4.77;100.00;99135.39;1654689;85;22084;-70
2021/12/04 03:50:38;;;;;;;39.40;17.32;;;;;;;-4.79;100.00;99134.80;1645912;86;37528;-70
2021/12/04 03:53:05;;;;;;;33.00;15.38;;;;;;;-4.81;100.00;99134.20;1669820;85;21519;-69
2021/12/04 03:55:32;;;;;;;28.15;13.32;;;;;;;-4.82;100.00;99135.77;1657475;85;20950;-69
2021/12/04 03:57:59;;;;;;;25.85;12.10;;;;;;;-4.84;100.00;99142.70;1651477;85;20948;-69
2021/12/04 04:00:28;;;;;;;31.45;13.00;;;;;;;-4.85;100.00;99142.39;1662778;85;21147;-69
2021/12/04 04:02:57;;;;;;;42.93;18.70;;;;;;;-4.85;100.00;99138.91;1653351;85;21630;-69
2021/12/04 04:05:24;;;;;;;35.63;15.83;;;;;;;-4.86;100.00;99136.75;1640581;85;20997;-70
2021/12/04 04:07:52;;;;;;;33.85;13.98;;;;;;;-4.88;100.00;99134.81;1667956;85;21014;-70
2021/12/04 04:10:21;;;;;;;32.67;12.63;;;;;;;-4.91;100.00;99137.95;1654956;85;20885;-68
2021/12/04 04:12:48;;;;;;;28.52;12.95;;;;;;;-4.94;100.00;99138.91;1661873;84;21144;-69
2021/12/04 04:15:15;;;;;;;25.08;11.28;;;;;;;-4.96;100.00;99151.19;1662907;85;21496;-70
2021/12/04 04:17:43;;;;;;;28.17;12.40;;;;;;;-5.00;100.00;99147.33;1647216;85;20942;-70
2021/12/04 04:20:16;;;;;;;24.18;12.47;;;;;;;-5.00;100.00;99150.00;1653770;85;21618;-70
2021/12/04 04:22:43;;;;;;;26.95;11.70;;;;;;;-5.02;100.00;99150.75;1652619;85;21183;-69
2021/12/04 04:25:11;;;;;;;28.23;12.60;;;;;;;-5.01;100.00;99155.05;1659999;84;21085;-70
2021/12/04 04:27:38;;;;;;;27.73;13.08;;;;;;;-4.99;100.00;99154.31;1657499;85;21624;-72
2021/12/04 04:30:07;;;;;;;30.82;13.48;;;;;;;-5.00;100.00;99150.00;1660151;85;20969;-70
2021/12/04 04:32:35;;;;;;;26.97;13.83;;;;;;;-5.00;100.00;99152.16;1664897;85;21022;-68
2021/12/04 04:35:09;;;;;;;37.17;15.50;;;;;;;-4.99;100.00;99148.44;1664919;85;20991;-68
2021/12/04 04:37:45;;;;;;;31.68;14.33;;;;;;;-4.98;100.00;99153.27;1662363;85;21230;-70
2021/12/04 05:12:45;;;;;;;32.15;13.83;;;;;;;-5.07;100.00;99166.66;1650650;84;20978;-77
2021/12/04 05:14:59;;;;;;;30.92;13.32;;;;;;;-5.08;100.00;99165.84;1654780;84;20990;-75
2021/12/04 05:17:41;;;;;;;29.98;12.93;;;;;;;-5.09;100.00;99164.73;1661466;85;21519;-76
2021/12/04 05:19:57;;;;;;;33.23;15.07;;;;;;;-5.13;100.00;99159.00;1648086;85;21003;-78
2021/12/04 05:22:24;;;;;;;34.63;16.73;;;;;;;-5.15;100.00;99158.41;1646420;84;21044;-75
2021/12/04 05:24:50;;;;;;;31.50;14.53;;;;;;;-5.20;100.00;99156.95;1650742;84;21448;-79
2021/12/04 05:27:17;;;;;;;33.55;14.53;;;;;;;-5.26;100.00;99161.04;1650569;84;21508;-72
2021/12/04 05:29:43;;;;;;;33.23;13.62;;;;;;;-5.33;100.00;99160.59;1664819;84;21798;-75
2021/12/04 05:32:10;;;;;;;25.55;12.13;;;;;;;-5.38;100.00;99161.77;1665059;85;21100;-76
2021/12/04 05:34:38;;;;;;;27.95;12.85;;;;;;;-5.39;100.00;99160.14;1666316;85;21448;-71
2021/12/04 05:37:05;;;;;;;28.42;12.30;;;;;;;-5.32;100.00;99162.22;1653233;85;21027;-88
2021/12/04 05:39:31;;;;;;;32.53;13.48;;;;;;;-5.26;100.00;99169.06;1649426;85;21017;-76
2021/12/04 05:41:59;;;;;;;30.92;14.25;;;;;;;-5.24;100.00;99170.48;1657033;85;21718;-80
2021/12/04 05:44:28;;;;;;;31.68;13.30;;;;;;;-5.21;100.00;99174.56;1658812;85;21009;-74
2021/12/04 05:47:08;;;;;;;34.13;14.90;;;;;;;-5.20;100.00;99183.71;1656624;84;20957;-76
2021/12/04 05:49:46;;;;;;;37.38;16.20;;;;;;;-5.17;100.00;99183.76;1656028;85;20965;-72
2021/12/04 05:57:10;;;;;;;34.70;14.95;;;;;;;-5.12;100.00;99195.95;1664224;85;20953;-77
2021/12/04 05:59:37;;;;;;;29.82;13.83;;;;;;;-5.11;100.00;99203.76;1664806;85;21093;-79
2021/12/04 06:02:05;;;;;;;42.80;16.82;;;;;;;-5.10;100.00;99204.58;1667171;85;21025;-77
2021/12/04 06:04:32;;;;;;;43.55;17.30;;;;;;;-5.11;100.00;99202.42;1666328;85;20914;-88
2021/12/04 06:06:59;;;;;;;45.35;20.92;;;;;;;-5.09;100.00;99207.55;1675705;84;21142;-83
2021/12/04 06:09:25;;;;;;;41.18;18.92;;;;;;;-5.07;100.00;99206.29;1678057;85;20950;-72
2021/12/04 06:11:52;;;;;;;63.28;32.03;;;;;;;-5.04;100.00;99209.86;1677298;85;21089;-70
2021/12/04 06:14:18;;;;;;;65.78;32.15;;;;;;;-5.01;100.00;99212.61;1675003;84;21571;-68
2021/12/04 06:16:45;;;;;;;53.80;27.52;;;;;;;-4.96;100.00;99207.92;1677841;84;21437;-69
2021/12/04 06:19:14;;;;;;;41.73;21.10;;;;;;;-4.94;100.00;99210.68;1679369;84;21402;-68
2021/12/04 06:24:24;;;;;;;40.30;17.35;;;;;;;-4.86;100.00;99205.55;1647860;86;21076;-68
2021/12/04 06:26:51;;;;;;;44.00;17.48;;;;;;;-4.80;100.00;99201.45;1681615;84;21080;-68
2021/12/04 06:29:18;;;;;;;40.98;19.55;;;;;;;-4.75;100.00;99202.94;1679725;84;21120;-68
2021/12/04 06:31:44;;;;;;;47.50;22.55;;;;;;;-4.70;100.00;99205.76;1680613;84;21154;-69
2021/12/04 06:34:11;;;;;;;47.23;20.30;;;;;;;-4.61;100.00;99207.58;1678130;84;20988;-69
2021/12/04 06:36:37;;;;;;;51.45;21.70;;;;;;;-4.38;100.00;99210.36;1681832;83;21016;-65
2021/12/04 06:39:04;;;;;;;39.70;19.82;;;;;;;-4.13;100.00;99213.42;1681244;84;21012;-67
2021/12/04 06:41:31;;;;;;;39.05;18.40;;;;;;;-3.92;100.00;99213.39;1673269;84;21583;-67
2021/12/04 06:43:57;;;;;;;29.75;14.87;;;;;;;-3.64;100.00;99210.88;1681587;84;21787;-67
2021/12/04 06:46:24;;;;;;;44.00;21.55;;;;;;;-3.30;100.00;99215.13;1678336;84;21018;-68
2021/12/04 06:49:08;;;;;;;35.95;19.27;;;;;;;-2.95;100.00;99217.27;1680973;84;21069;-66
2021/12/04 06:51:35;;;;;;;34.10;16.42;;;;;;;-2.52;100.00;99221.36;1681479;84;20988;-73
2021/12/04 06:54:07;;;;;;;31.42;14.07;;;;;;;-1.97;100.00;99206.78;1679985;83;21500;-73
2021/12/04 06:56:36;;;;;;;30.57;14.20;;;;;;;-1.46;100.00;99208.41;1679196;84;21847;-75
2021/12/04 06:59:10;;;;;;;30.85;13.83;;;;;;;-1.08;98.88;99213.52;1678048;84;20886;-73
2021/12/04 07:01:37;;;;;;;30.15;13.55;;;;;;;-0.82;96.68;99212.81;1659737;85;21064;-74
2021/12/04 07:04:04;;;;;;;26.35;13.13;;;;;;;-0.68;95.04;99223.52;1691056;83;21042;-74
2021/12/04 07:06:32;;;;;;;26.50;14.93;;;;;;;-0.55;94.61;99225.52;1687458;83;21017;-76
2021/12/04 07:08:58;;;;;;;26.48;13.13;;;;;;;-0.45;93.56;99224.30;1670389;83;21134;-78
2021/12/04 07:11:26;;;;;;;24.20;13.80;;;;;;;-0.38;92.83;99223.05;1702866;83;21035;-77
2021/12/04 07:13:53;;;;;;;25.05;11.78;;;;;;;-0.38;91.56;99213.61;1700108;83;21008;-79
2021/12/04 07:16:21;;;;;;;29.65;13.95;;;;;;;-0.27;89.76;99217.77;1701107;83;21031;-79
2021/12/04 07:18:48;;;;;;;28.98;14.73;;;;;;;-0.10;89.50;99213.91;1702536;83;21566;-77
2021/12/04 07:21:15;;;;;;;26.10;13.25;;;;;;;0.14;88.71;99209.53;1705408;83;21763;-81
2021/12/04 07:23:41;;;;;;;23.10;12.63;;;;;;;0.40;88.14;99212.73;1711144;83;21050;-79
2021/12/04 07:26:08;;;;;;;23.47;11.75;;;;;;;0.81;86.91;99219.78;1714921;83;20967;-74
2021/12/04 07:28:35;;;;;;;22.22;11.95;;;;;;;1.18;85.05;99216.47;1706182;83;21173;-76
2021/12/04 07:31:03;;;;;;;23.32;11.45;;;;;;;1.49;84.02;99224.73;1707462;83;21042;-79
2021/12/04 07:33:31;;;;;;;26.07;12.30;;;;;;;1.85;82.22;99226.47;1710218;83;21793;-78
2021/12/04 07:35:59;;;;;;;23.87;12.10;;;;;;;2.10;79.90;99218.95;1713052;83;21050;-82
2021/12/04 07:38:26;;;;;;;24.30;12.20;;;;;;;2.31;77.17;99219.22;1704477;83;21024;-81
2021/12/04 07:40:54;;;;;;;27.00;13.90;;;;;;;2.38;76.34;99220.86;1707910;83;21061;-84
2021/12/04 07:43:21;;;;;;;25.32;14.68;;;;;;;2.53;75.41;99221.67;1704958;83;21096;-72
2021/12/04 07:45:48;;;;;;;21.42;11.40;;;;;;;2.67;74.30;99221.95;1707141;82;21112;-71
2021/12/04 07:48:14;;;;;;;25.68;12.10;;;;;;;2.78;73.13;99214.09;1714968;82;20943;-73
2021/12/04 07:50:41;;;;;;;24.20;12.40;;;;;;;2.83;72.92;99218.69;1714173;83;21019;-73
2021/12/04 07:53:07;;;;;;;24.77;12.68;;;;;;;2.88;71.37;99214.62;1704527;83;21099;-73
2021/12/04 07:55:34;;;;;;;26.27;13.18;;;;;;;3.17;70.11;99212.91;1709045;83;21600;-74
2021/12/04 07:58:01;;;;;;;29.20;12.98;;;;;;;3.35;69.15;99211.50;1698617;83;21182;-74
2021/12/04 08:00:28;;;;;;;22.27;12.30;;;;;;;3.54;68.83;99211.68;1706796;83;20935;-73
2021/12/04 08:02:54;;;;;;;24.55;12.65;;;;;;;3.54;68.83;99211.68;1698135;83;21006;-74
2021/12/04 08:05:21;;;;;;;25.02;12.45;;;;;;;3.76;67.62;99213.48;1633937;86;21034;-73
2021/12/04 08:07:48;;;;;;;22.45;12.95;;;;;;;3.93;67.22;99215.30;1655686;84;21049;-73
2021/12/04 08:10:17;;;;;;;24.20;13.30;;;;;;;4.07;66.02;99207.86;1681862;84;21958;-73
2021/12/04 08:12:43;;;;;;;24.15;12.80;;;;;;;4.25;65.71;99209.92;1682700;84;20968;-72
2021/12/04 08:15:10;;;;;;;23.75;12.60;;;;;;;4.33;63.33;99209.31;1676967;84;21021;-73
2021/12/04 08:17:44;;;;;;;20.32;11.43;;;;;;;4.29;64.01;99212.34;1675812;84;21056;-73
2021/12/04 08:20:12;;;;;;;23.12;12.82;;;;;;;4.30;62.46;99207.98;1676131;84;21048;-73
2021/12/04 08:22:39;;;;;;;23.62;12.70;;;;;;;4.20;63.80;99213.48;1654280;84;21714;-74
2021/12/04 08:25:07;;;;;;;25.27;11.93;;;;;;;4.32;63.84;99209.05;1650645;85;21071;-73
2021/12/04 08:27:34;;;;;;;18.87;11.45;;;;;;;4.45;63.75;99195.38;1653011;85;21025;-73
2021/12/04 08:30:04;;;;;;;21.73;13.32;;;;;;;4.58;63.03;99188.73;1649253;86;21156;-73
2021/12/04 08:32:32;;;;;;;23.53;12.57;;;;;;;4.54;61.70;99190.95;1651206;85;21068;-73
2021/12/04 08:34:58;;;;;;;20.55;12.25;;;;;;;4.52;63.11;99186.34;1651946;85;21089;-73
2021/12/04 08:37:25;;;;;;;26.40;13.65;;;;;;;4.57;61.54;99188.47;1651561;85;21081;-73
2021/12/04 08:39:51;;;;;;;26.35;12.93;;;;;;;4.72;61.29;99190.77;1673221;84;21021;-73
2021/12/04 08:42:19;;;;;;;23.77;11.48;;;;;;;4.77;60.99;99194.25;1680074;85;21004;-73
2021/12/04 08:44:47;;;;;;;26.35;12.15;;;;;;;4.69;60.45;99187.26;1676572;84;20992;-73
2021/12/04 08:47:14;;;;;;;23.12;11.33;;;;;;;4.70;60.40;99186.16;1680056;84;21503;-73
2021/12/04 08:49:48;;;;;;;22.62;11.25;;;;;;;4.87;60.25;99179.20;1677516;84;20947;-73
2021/12/04 08:52:11;;;;;;;23.30;12.82;;;;;;;4.95;59.76;99177.22;1676895;84;21113;-73
2021/12/04 08:54:39;;;;;;;22.82;11.63;;;;;;;5.00;60.28;99175.00;1661226;85;21031;-73
2021/12/04 08:57:06;;;;;;;25.37;13.58;;;;;;;5.22;60.22;99169.83;1676126;84;21044;-77
2021/12/04 08:59:34;;;;;;;29.02;15.23;;;;;;;5.39;59.97;99166.64;1675617;84;22115;-79
2021/12/04 09:02:01;;;;;;;22.98;13.25;;;;;;;5.62;60.10;99171.25;1683264;84;21095;-81
2021/12/04 09:04:32;;;;;;;22.13;12.78;;;;;;;5.99;59.83;99168.86;1682850;84;21066;-76
2021/12/04 09:06:59;;;;;;;19.92;11.48;;;;;;;6.31;59.17;99160.74;1678897;84;20913;-82
2021/12/04 09:09:28;;;;;;;28.83;13.72;;;;;;;6.72;57.34;99155.95;1678782;84;21061;-82
2021/12/04 09:12:02;;;;;;;29.50;15.05;;;;;;;6.96;57.23;99151.12;1678964;84;21153;-83
2021/12/04 09:14:31;;;;;;;24.63;12.43;;;;;;;7.22;55.65;99146.80;1678196;84;20858;-79
2021/12/04 09:16:59;;;;;;;23.83;12.78;;;;;;;7.40;54.99;99143.71;1678378;84;21587;-75
2021/12/04 09:19:25;;;;;;;23.87;13.28;;;;;;;7.49;54.88;99143.81;1679385;84;21503;-76
2021/12/04 09:21:54;;;;;;;24.87;13.50;;;;;;;7.64;54.20;99140.72;1676789;84;21088;-75
2021/12/04 09:24:37;;;;;;;18.32;10.78;;;;;;;7.92;53.86;99146.39;1678105;84;21846;-75
2021/12/04 10:02:58;;;;;;;30.00;15.25;;;;;;;7.48;52.20;99124.44;1662886;84;21013;-75
2021/12/04 10:18:58;;;;;;;27.05;16.37;;;;;;;8.30;51.62;99107.75;1678664;83;21084;-73
2021/12/04 10:34:57;;;;;;;21.73;11.43;;;;;;;8.67;49.20;99085.20;1680005;84;21072;-74
2021/12/04 10:37:25;;;;;;;18.07;9.28;;;;;;;8.58;50.01;99075.06;1678966;84;20957;-73
2021/12/04 10:39:54;;;;;;;18.07;9.88;;;;;;;8.84;50.29;99078.45;1682524;84;21001;-71
2021/12/04 10:42:25;;;;;;;15.20;8.18;;;;;;;9.03;47.81;99079.58;1676596;84;21005;-71
2021/12/04 10:44:54;;;;;;;14.80;8.23;;;;;;;9.15;47.86;99080.59;1677563;83;21128;-71
2021/12/04 10:47:26;;;;;;;20.07;9.90;;;;;;;9.43;46.97;99078.38;1679345;84;20901;-71
2021/12/04 10:52:59;;;;;;;21.30;10.32;;;;;;;9.71;46.33;99073.44;1678346;84;20941;-73
2021/12/04 10:58:27;;;;;;;17.67;9.23;;;;;;;9.96;45.49;99072.36;1678726;84;21140;-78
2021/12/04 11:23:39;;;;;;;25.95;14.65;;;;;;;9.18;46.78;99053.94;1662389;85;21178;-70
2021/12/04 11:28:44;;;;;;;21.73;12.43;;;;;;;9.82;45.30;99044.55;1649690;85;21116;-71
2021/12/04 11:37:12;;;;;;;23.90;12.73;;;;;;;9.23;46.71;99046.95;1656731;85;21479;-71
2021/12/04 11:41:56;;;;;;;21.93;10.80;;;;;;;9.46;46.01;99042.69;1660259;85;21100;-71
2021/12/04 11:44:16;;;;;;;20.55;10.50;;;;;;;9.42;46.27;99039.78;1665372;85;21044;-71
2021/12/04 11:46:44;;;;;;;25.92;11.60;;;;;;;9.32;45.43;99033.24;1652641;85;21044;-70
2021/12/04 11:49:24;;;;;;;23.42;10.55;;;;;;;9.10;46.33;99035.55;1655559;85;21980;-71
2021/12/04 11:51:56;;;;;;;21.57;11.30;;;;;;;9.07;46.17;99026.61;1659449;85;21184;-70
2021/12/04 11:54:26;;;;;;;;;;;;;;;9.01;46.61;99022.97;1647831;85;20973;-71
2021/12/04 11:57:12;;;;;;;19.52;11.10;;;;;;;9.15;46.46;99028.56;1655701;84;20446;-70
2021/12/04 11:59:42;;;;;;;22.50;13.15;;;;;;;9.22;46.60;99023.98;1655769;85;21536;-71
2021/12/04 12:02:22;;;;;;;23.42;11.50;;;;;;;9.31;45.80;99022.05;1659919;84;21059;-71
2021/12/04 12:04:54;;;;;;;19.52;10.90;;;;;;;9.22;46.23;99027.53;1670803;85;21152;-71
2021/12/04 12:07:27;;;;;;;22.00;11.12;;;;;;;9.11;46.38;99019.94;1656725;85;21634;-70
2021/12/04 12:10:12;;;;;;;27.37;12.40;;;;;;;9.21;46.04;99023.18;1659678;85;21108;-71
2021/12/04 12:12:46;;;;;;;32.83;16.10;;;;;;;9.08;46.00;99023.31;1656718;85;21051;-71
2021/12/04 12:15:29;;;;;;;22.40;13.43;;;;;;;8.76;46.67;99022.55;1654183;85;20952;-71
2021/12/04 12:17:56;;;;;;;18.30;10.25;;;;;;;8.52;47.08;99022.16;1662161;85;21237;-71
2021/12/04 12:20:42;;;;;;;23.95;10.35;;;;;;;8.52;47.21;99016.13;1651290;85;20934;-71
2021/12/04 12:23:12;;;;;;;23.12;10.20;;;;;;;8.75;47.46;99020.13;1670393;84;21064;-70
2021/12/04 12:37:22;;;;;;;20.55;10.13;;;;;;;9.17;45.98;99004.41;1641311;86;21123;-70
2021/12/04 12:40:06;;;;;;;20.37;9.45;;;;;;;9.33;45.58;99002.55;1643649;86;21147;-71
2021/12/04 12:42:40;;;;;;;20.08;10.70;;;;;;;9.40;45.64;99006.98;1622165;86;20915;-71
2021/12/04 12:45:34;;;;;;;23.85;11.22;;;;;;;9.28;45.86;99008.98;1641163;86;21161;-72
2021/12/04 12:48:08;;;;;;;29.30;14.38;;;;;;;9.19;46.25;99000.78;1639633;86;21016;-71
2021/12/04 12:50:46;;;;;;;23.00;13.15;;;;;;;9.29;46.37;98998.27;1660582;84;21058;-71
2021/12/04 12:53:17;;;;;;;29.57;14.93;;;;;;;9.37;46.22;98994.73;1677419;83;20968;-72
2021/12/04 12:55:56;;;;;;;29.55;14.20;;;;;;;9.25;46.34;98995.36;1675244;84;20940;-70
2021/12/04 12:58:31;;;;;;;23.85;12.53;;;;;;;9.21;46.21;98991.69;1667246;84;21161;-70
2021/12/04 13:12:49;;;;;;;24.12;11.85;;;;;;;7.90;48.28;98994.20;1663465;85;21163;-70
2021/12/04 13:15:39;;;;;;;18.45;10.23;;;;;;;7.48;49.48;98993.34;1667698;84;20914;-70
2021/12/04 13:18:22;;;;;;;22.05;11.20;;;;;;;7.12;50.03;98995.50;1642858;85;21028;-70
2021/12/04 13:20:52;;;;;;;20.95;11.75;;;;;;;6.74;50.94;98994.95;1630260;86;21143;-69
2021/12/04 13:23:22;;;;;;;20.52;11.53;;;;;;;6.20;52.18;98997.11;1663447;85;20898;-70
2021/12/04 13:25:56;;;;;;;23.07;12.50;;;;;;;5.59;53.98;98996.20;1662636;83;21117;-76
2021/12/04 13:28:27;;;;;;;24.63;12.58;;;;;;;5.05;55.50;98995.38;1667778;84;20913;-77
2021/12/04 13:30:55;;;;;;;36.23;15.98;;;;;;;4.44;57.10;98992.08;1658192;85;21029;-70
2021/12/04 13:33:27;;;;;;;35.95;17.45;;;;;;;4.04;58.67;98998.76;1658653;85;21792;-71
2021/12/04 13:35:55;;;;;;;31.93;15.53;;;;;;;3.77;60.13;98997.09;1651707;85;21006;-71
2021/12/04 13:38:22;;;;;;;34.25;16.57;;;;;;;3.51;62.06;98993.22;1652367;85;22127;-74
2021/12/04 13:40:50;;;;;;;39.55;18.35;;;;;;;3.15;63.83;98987.80;1651359;85;21603;-72
2021/12/04 13:43:17;;;;;;;32.33;15.32;;;;;;;3.15;63.83;98987.80;1655455;85;21055;-73
2021/12/04 13:45:44;;;;;;;30.25;15.75;;;;;;;2.97;64.41;98985.18;1665905;85;21073;-74
2021/12/04 13:48:11;;;;;;;27.62;14.87;;;;;;;2.51;66.26;98985.41;1659185;85;21013;-76
2021/12/04 13:53:09;;;;;;;26.52;13.98;;;;;;;2.32;67.41;98984.38;1652007;85;21021;-67
2021/12/04 13:55:39;;;;;;;33.92;14.93;;;;;;;2.05;68.48;98987.99;1659722;85;21140;-72
2021/12/04 13:58:06;;;;;;;37.05;16.57;;;;;;;1.80;69.43;98982.06;1655227;85;21152;-70
2021/12/04 14:00:33;;;;;;;28.65;14.10;;;;;;;1.64;70.39;98986.70;1657975;85;21141;-71
2021/12/04 14:02:59;;;;;;;29.75;15.48;;;;;;;1.54;71.09;98987.51;1659923;85;21156;-74
2021/12/04 14:05:26;;;;;;;31.45;16.75;;;;;;;1.45;71.79;98983.72;1652335;84;21604;-72
2021/12/04 14:08:00;;;;;;;42.23;18.30;;;;;;;1.37;72.27;98984.25;1654614;85;21012;-78
2021/12/04 14:10:38;;;;;;;41.65;20.52;;;;;;;1.27;72.78;98989.10;1658901;85;20990;-80
2021/12/04 14:13:05;;;;;;;43.17;22.00;;;;;;;1.19;73.53;98991.52;1656812;85;21015;-79
2021/12/04 14:15:32;;;;;;;51.73;24.82;;;;;;;1.11;74.03;98988.02;1657688;84;21161;-74
2021/12/04 14:18:05;;;;;;;48.55;24.43;;;;;;;1.03;74.60;98984.48;1657410;85;21031;-82
2021/12/04 14:20:33;;;;;;;43.00;22.32;;;;;;;0.94;75.06;98982.30;1658966;84;21044;-73
2021/12/04 14:23:00;;;;;;;41.92;22.82;;;;;;;0.84;75.35;98987.68;1663663;85;21012;-71
2021/12/04 14:25:28;;;;;;;46.53;22.40;;;;;;;0.72;75.54;98988.45;1655012;85;20990;-74
2021/12/04 14:27:57;;;;;;;47.75;21.73;;;;;;;0.62;75.42;98991.11;1663586;85;21129;-78
2021/12/04 14:30:27;;;;;;;33.30;18.62;;;;;;;0.48;75.52;98988.11;1664493;85;20906;-73
2021/12/04 14:32:55;;;;;;;39.83;19.67;;;;;;;0.33;75.89;98997.48;1662534;85;21674;-72
2021/12/04 14:35:28;;;;;;;33.13;17.32;;;;;;;0.18;76.29;99000.09;1654464;85;21588;-75